sensor_id;sensor_type;location;lat;lon;timestamp;pressure;altitude;pressure_sealevel;temperature;humidity
32330;BME280;18807;52.434;13.238;2023-02-20T00:00:34;101796.72;;;2.26;100.00
32330;BME280;18807;52.434;13.238;2023-02-20T00:08:09;101773.69;;;2.36;100.00
32330;BME280;18807;52.434;13.238;2023-02-20T00:15:44;101781.09;;;2.42;100.00
32330;BME280;18807;52.434;13.238;2023-02-20T00:23:18;101774.34;;;2.47;100.00
32330;BME280;18807;52.434;13.238;2023-02-20T00:30:54;101763.72;;;2.45;100.00
32330;BME280;18807;52.434;13.238;2023-02-20T00:38:28;101753.25;;;2.47;100.00
32330;BME280;18807;52.434;13.238;2023-02-20T00:46:04;101748.00;;;2.47;100.00
32330;BME280;18807;52.434;13.238;2023-02-20T00:53:37;101739.91;;;2.44;100.00
32330;BME280;18807;52.434;13.238;2023-02-20T01:01:13;101733.44;;;2.39;100.00
32330;BME280;18807;52.434;13.238;2023-02-20T01:08:48;101726.66;;;2.29;100.00
32330;BME280;18807;52.434;13.238;2023-02-20T01:16:23;101724.66;;;2.25;100.00
32330;BME280;18807;52.434;13.238;2023-02-20T01:23:57;101704.28;;;2.23;100.00
32330;BME280;18807;52.434;13.238;2023-02-20T01:31:32;101695.59;;;2.24;100.00
32330;BME280;18807;52.434;13.238;2023-02-20T01:39:06;101679.78;;;2.24;100.00
32330;BME280;18807;52.434;13.238;2023-02-20T01:46:45;101657.97;;;2.26;100.00
32330;BME280;18807;52.434;13.238;2023-02-20T01:54:21;101662.41;;;2.27;100.00
32330;BME280;18807;52.434;13.238;2023-02-20T02:02:15;101639.69;;;2.29;100.00
32330;BME280;18807;52.434;13.238;2023-02-20T02:09:52;101621.34;;;2.31;100.00
32330;BME280;18807;52.434;13.238;2023-02-20T02:17:49;101609.38;;;2.36;100.00
32330;BME280;18807;52.434;13.238;2023-02-20T02:25:35;101611.56;;;2.43;100.00
32330;BME280;18807;52.434;13.238;2023-02-20T02:33:35;101583.47;;;2.58;100.00
32330;BME280;18807;52.434;13.238;2023-02-20T02:41:25;101587.03;;;2.73;100.00
32330;BME280;18807;52.434;13.238;2023-02-20T02:49:06;101569.44;;;3.02;100.00
32330;BME280;18807;52.434;13.238;2023-02-20T02:57:19;101551.78;;;3.32;100.00
32330;BME280;18807;52.434;13.238;2023-02-20T03:04:54;101547.91;;;3.41;100.00
32330;BME280;18807;52.434;13.238;2023-02-20T03:12:33;101545.06;;;3.53;100.00
32330;BME280;18807;52.434;13.238;2023-02-20T03:20:11;101535.47;;;3.71;100.00
32330;BME280;18807;52.434;13.238;2023-02-20T03:27:52;101518.22;;;3.77;100.00
32330;BME280;18807;52.434;13.238;2023-02-20T03:35:29;101486.25;;;3.89;100.00
32330;BME280;18807;52.434;13.238;2023-02-20T03:43:24;101478.53;;;4.09;100.00
32330;BME280;18807;52.434;13.238;2023-02-20T03:51:00;101485.47;;;4.24;100.00
32330;BME280;18807;52.434;13.238;2023-02-20T03:58:41;101489.50;;;4.33;100.00
32330;BME280;18807;52.434;13.238;2023-02-20T04:06:17;101493.25;;;4.38;100.00
32330;BME280;18807;52.434;13.238;2023-02-20T04:13:54;101487.28;;;4.42;100.00
32330;BME280;18807;52.434;13.238;2023-02-20T04:21:49;101463.00;;;4.49;100.00
32330;BME280;18807;52.434;13.238;2023-02-20T04:29:26;101464.94;;;4.53;100.00
32330;BME280;18807;52.434;13.238;2023-02-20T04:37:06;101445.75;;;4.57;100.00
32330;BME280;18807;52.434;13.238;2023-02-20T04:44:41;101422.31;;;4.65;100.00
32330;BME280;18807;52.434;13.238;2023-02-20T04:52:15;101427.19;;;4.73;100.00
32330;BME280;18807;52.434;13.238;2023-02-20T04:59:51;101426.78;;;4.83;100.00
32330;BME280;18807;52.434;13.238;2023-02-20T05:07:25;101400.31;;;4.83;100.00
32330;BME280;18807;52.434;13.238;2023-02-20T05:15:00;101369.81;;;4.91;100.00
32330;BME280;18807;52.434;13.238;2023-02-20T05:22:34;101356.94;;;4.99;100.00
32330;BME280;18807;52.434;13.238;2023-02-20T05:30:11;101362.44;;;5.03;100.00
32330;BME280;18807;52.434;13.238;2023-02-20T05:37:45;101354.91;;;5.12;100.00
32330;BME280;18807;52.434;13.238;2023-02-20T05:45:21;101355.06;;;5.15;100.00
32330;BME280;18807;52.434;13.238;2023-02-20T05:52:55;101345.31;;;5.14;100.00
32330;BME280;18807;52.434;13.238;2023-02-20T06:00:30;101340.88;;;5.13;100.00
32330;BME280;18807;52.434;13.238;2023-02-20T06:08:04;101317.94;;;5.14;100.00
32330;BME280;18807;52.434;13.238;2023-02-20T06:15:39;101293.31;;;5.16;100.00
32330;BME280;18807;52.434;13.238;2023-02-20T06:23:13;101278.47;;;5.20;100.00
32330;BME280;18807;52.434;13.238;2023-02-20T06:30:49;101280.63;;;5.28;100.00
32330;BME280;18807;52.434;13.238;2023-02-20T06:38:23;101262.50;;;5.37;100.00
32330;BME280;18807;52.434;13.238;2023-02-20T06:45:59;101267.16;;;5.43;100.00
32330;BME280;18807;52.434;13.238;2023-02-20T06:53:33;101270.03;;;5.47;100.00
32330;BME280;18807;52.434;13.238;2023-02-20T07:01:11;101244.59;;;5.52;100.00
32330;BME280;18807;52.434;13.238;2023-02-20T07:08:45;101234.47;;;5.63;100.00
32330;BME280;18807;52.434;13.238;2023-02-20T07:16:20;101240.22;;;5.73;100.00
32330;BME280;18807;52.434;13.238;2023-02-20T07:23:54;101227.16;;;5.78;100.00
32330;BME280;18807;52.434;13.238;2023-02-20T07:31:30;101209.97;;;5.89;100.00
32330;BME280;18807;52.434;13.238;2023-02-20T07:39:04;101235.09;;;5.98;100.00
32330;BME280;18807;52.434;13.238;2023-02-20T07:46:40;101222.66;;;6.18;100.00
32330;BME280;18807;52.434;13.238;2023-02-20T07:54:15;101202.53;;;6.23;100.00
32330;BME280;18807;52.434;13.238;2023-02-20T08:01:50;101201.44;;;6.40;100.00
32330;BME280;18807;52.434;13.238;2023-02-20T08:09:42;101178.94;;;6.53;100.00
32330;BME280;18807;52.434;13.238;2023-02-20T08:17:17;101165.97;;;6.62;100.00
32330;BME280;18807;52.434;13.238;2023-02-20T08:24:52;101154.00;;;6.73;100.00
32330;BME280;18807;52.434;13.238;2023-02-20T08:32:27;101141.94;;;6.81;100.00
32330;BME280;18807;52.434;13.238;2023-02-20T08:40:01;101140.22;;;6.83;100.00
32330;BME280;18807;52.434;13.238;2023-02-20T08:47:39;101126.38;;;6.91;100.00
32330;BME280;18807;52.434;13.238;2023-02-20T08:55:13;101109.22;;;7.07;100.00
32330;BME280;18807;52.434;13.238;2023-02-20T09:02:49;101084.66;;;7.14;100.00
32330;BME280;18807;52.434;13.238;2023-02-20T09:10:23;101069.22;;;7.29;100.00
32330;BME280;18807;52.434;13.238;2023-02-20T09:17:59;101045.66;;;7.39;100.00
32330;BME280;18807;52.434;13.238;2023-02-20T09:25:33;101014.34;;;7.57;100.00
32330;BME280;18807;52.434;13.238;2023-02-20T09:33:10;100994.88;;;7.58;100.00
32330;BME280;18807;52.434;13.238;2023-02-20T09:40:45;100982.91;;;7.72;99.40
32330;BME280;18807;52.434;13.238;2023-02-20T09:48:31;100987.88;;;7.90;97.86
32330;BME280;18807;52.434;13.238;2023-02-20T09:56:16;100970.44;;;7.99;96.87
32330;BME280;18807;52.434;13.238;2023-02-20T10:03:56;100974.41;;;8.15;95.57
32330;BME280;18807;52.434;13.238;2023-02-20T10:11:57;100975.00;;;8.35;93.90
32330;BME280;18807;52.434;13.238;2023-02-20T10:19:43;100968.50;;;8.58;90.59
32330;BME280;18807;52.434;13.238;2023-02-20T10:27:29;100926.03;;;8.62;92.52
32330;BME280;18807;52.434;13.238;2023-02-20T10:35:08;100941.31;;;8.69;92.23
32330;BME280;18807;52.434;13.238;2023-02-20T10:42:47;100933.78;;;8.89;89.41
32330;BME280;18807;52.434;13.238;2023-02-20T10:50:29;100902.31;;;9.10;89.63
32330;BME280;18807;52.434;13.238;2023-02-20T10:58:09;100909.81;;;9.26;88.31
32330;BME280;18807;52.434;13.238;2023-02-20T11:05:52;100895.72;;;9.31;88.38
32330;BME280;18807;52.434;13.238;2023-02-20T11:13:26;100892.22;;;9.34;89.01
32330;BME280;18807;52.434;13.238;2023-02-20T11:21:01;100881.63;;;9.37;91.05
32330;BME280;18807;52.434;13.238;2023-02-20T11:28:35;100881.94;;;9.50;89.43
32330;BME280;18807;52.434;13.238;2023-02-20T11:36:13;100883.75;;;9.53;90.91
32330;BME280;18807;52.434;13.238;2023-02-20T11:44:18;100887.78;;;9.74;91.21
32330;BME280;18807;52.434;13.238;2023-02-20T11:52:05;100862.19;;;9.85;92.81
32330;BME280;18807;52.434;13.238;2023-02-20T11:59:41;100867.75;;;9.97;92.15
32330;BME280;18807;52.434;13.238;2023-02-20T12:07:24;100855.38;;;10.01;93.48
32330;BME280;18807;52.434;13.238;2023-02-20T12:14:58;100869.69;;;10.06;93.36
32330;BME280;18807;52.434;13.238;2023-02-20T12:23:02;100843.09;;;10.09;93.86
32330;BME280;18807;52.434;13.238;2023-02-20T12:30:50;100841.28;;;10.06;94.63
32330;BME280;18807;52.434;13.238;2023-02-20T12:38:38;100858.06;;;10.01;96.04
32330;BME280;18807;52.434;13.238;2023-02-20T12:46:20;100834.97;;;10.04;99.14
32330;BME280;18807;52.434;13.238;2023-02-20T12:54:06;100856.28;;;10.03;100.00
32330;BME280;18807;52.434;13.238;2023-02-20T13:01:47;100849.06;;;9.96;100.00
32330;BME280;18807;52.434;13.238;2023-02-20T13:09:44;100859.50;;;9.84;100.00
32330;BME280;18807;52.434;13.238;2023-02-20T13:17:31;100861.00;;;9.70;100.00
32330;BME280;18807;52.434;13.238;2023-02-20T13:25:52;100855.34;;;9.55;100.00
32330;BME280;18807;52.434;13.238;2023-02-20T13:33:27;100841.00;;;9.48;100.00
32330;BME280;18807;52.434;13.238;2023-02-20T13:41:05;100840.88;;;9.42;100.00
32330;BME280;18807;52.434;13.238;2023-02-20T13:48:41;100854.09;;;9.38;100.00
32330;BME280;18807;52.434;13.238;2023-02-20T13:56:18;100859.25;;;9.30;100.00
32330;BME280;18807;52.434;13.238;2023-02-20T14:03:59;100844.03;;;9.25;100.00
32330;BME280;18807;52.434;13.238;2023-02-20T14:11:36;100840.38;;;9.20;100.00
32330;BME280;18807;52.434;13.238;2023-02-20T14:19:22;100857.28;;;9.20;100.00
32330;BME280;18807;52.434;13.238;2023-02-20T14:26:59;100854.69;;;9.23;100.00
32330;BME280;18807;52.434;13.238;2023-02-20T14:34:37;100868.97;;;9.27;100.00
32330;BME280;18807;52.434;13.238;2023-02-20T14:42:19;100873.56;;;9.34;100.00
32330;BME280;18807;52.434;13.238;2023-02-20T14:50:07;100885.13;;;9.34;100.00
32330;BME280;18807;52.434;13.238;2023-02-20T14:57:48;100873.63;;;9.37;100.00
32330;BME280;18807;52.434;13.238;2023-02-20T15:05:28;100866.56;;;9.39;100.00
32330;BME280;18807;52.434;13.238;2023-02-20T15:13:08;100852.41;;;9.41;100.00
32330;BME280;18807;52.434;13.238;2023-02-20T15:20:43;100862.16;;;9.41;100.00
32330;BME280;18807;52.434;13.238;2023-02-20T15:28:28;100846.16;;;9.41;100.00
32330;BME280;18807;52.434;13.238;2023-02-20T15:36:03;100855.06;;;9.41;100.00
32330;BME280;18807;52.434;13.238;2023-02-20T15:43:39;100833.69;;;9.38;100.00
32330;BME280;18807;52.434;13.238;2023-02-20T15:51:22;100848.84;;;9.42;100.00
32330;BME280;18807;52.434;13.238;2023-02-20T15:59:05;100846.19;;;9.42;100.00
32330;BME280;18807;52.434;13.238;2023-02-20T16:06:39;100826.56;;;9.37;100.00
32330;BME280;18807;52.434;13.238;2023-02-20T16:14:16;100851.59;;;9.45;100.00
32330;BME280;18807;52.434;13.238;2023-02-20T16:21:50;100837.34;;;9.43;100.00
32330;BME280;18807;52.434;13.238;2023-02-20T16:29:34;100853.41;;;9.46;100.00
32330;BME280;18807;52.434;13.238;2023-02-20T16:37:11;100836.41;;;9.41;100.00
32330;BME280;18807;52.434;13.238;2023-02-20T16:44:47;100835.47;;;9.39;100.00
32330;BME280;18807;52.434;13.238;2023-02-20T16:52:24;100845.22;;;9.37;100.00
32330;BME280;18807;52.434;13.238;2023-02-20T17:00:00;100846.00;;;9.33;100.00
32330;BME280;18807;52.434;13.238;2023-02-20T17:07:35;100852.28;;;9.35;100.00
32330;BME280;18807;52.434;13.238;2023-02-20T17:15:13;100851.38;;;9.35;100.00
32330;BME280;18807;52.434;13.238;2023-02-20T17:22:49;100846.09;;;9.38;100.00
32330;BME280;18807;52.434;13.238;2023-02-20T17:30:37;100846.13;;;9.39;100.00
32330;BME280;18807;52.434;13.238;2023-02-20T17:38:28;100828.28;;;9.35;100.00
32330;BME280;18807;52.434;13.238;2023-02-20T17:46:04;100854.94;;;9.35;100.00
32330;BME280;18807;52.434;13.238;2023-02-20T17:53:37;100854.06;;;9.36;100.00
32330;BME280;18807;52.434;13.238;2023-02-20T18:01:13;100866.47;;;9.34;100.00
32330;BME280;18807;52.434;13.238;2023-02-20T18:08:47;100874.41;;;9.31;100.00
32330;BME280;18807;52.434;13.238;2023-02-20T18:16:40;100877.72;;;9.21;100.00
32330;BME280;18807;52.434;13.238;2023-02-20T18:24:16;100883.78;;;9.14;100.00
32330;BME280;18807;52.434;13.238;2023-02-20T18:31:52;100873.94;;;9.10;100.00
32330;BME280;18807;52.434;13.238;2023-02-20T18:39:28;100876.47;;;9.04;100.00
32330;BME280;18807;52.434;13.238;2023-02-20T18:47:03;100866.50;;;8.96;100.00
32330;BME280;18807;52.434;13.238;2023-02-20T18:54:37;100863.59;;;8.85;100.00
32330;BME280;18807;52.434;13.238;2023-02-20T19:02:14;100855.41;;;8.78;100.00
32330;BME280;18807;52.434;13.238;2023-02-20T19:09:50;100852.50;;;8.67;100.00
32330;BME280;18807;52.434;13.238;2023-02-20T19:17:27;100841.69;;;8.61;100.00
32330;BME280;18807;52.434;13.238;2023-02-20T19:25:05;100829.16;;;8.56;100.00
32330;BME280;18807;52.434;13.238;2023-02-20T19:32:41;100828.25;;;8.55;100.00
32330;BME280;18807;52.434;13.238;2023-02-20T19:40:15;100822.91;;;8.55;100.00
32330;BME280;18807;52.434;13.238;2023-02-20T19:47:51;100813.19;;;8.56;100.00
32330;BME280;18807;52.434;13.238;2023-02-20T19:55:25;100814.16;;;8.61;100.00
32330;BME280;18807;52.434;13.238;2023-02-20T20:03:03;100807.28;;;8.69;100.00
32330;BME280;18807;52.434;13.238;2023-02-20T20:10:38;100797.63;;;8.74;100.00
32330;BME280;18807;52.434;13.238;2023-02-20T20:18:13;100793.31;;;8.80;100.00
32330;BME280;18807;52.434;13.238;2023-02-20T20:25:47;100810.34;;;8.87;100.00
32330;BME280;18807;52.434;13.238;2023-02-20T20:33:40;100812.34;;;8.97;100.00
32330;BME280;18807;52.434;13.238;2023-02-20T20:41:14;100815.19;;;9.04;100.00
32330;BME280;18807;52.434;13.238;2023-02-20T20:48:50;100807.22;;;9.06;100.00
32330;BME280;18807;52.434;13.238;2023-02-20T20:56:24;100797.59;;;9.12;100.00
32330;BME280;18807;52.434;13.238;2023-02-20T21:03:59;100787.00;;;9.15;100.00
32330;BME280;18807;52.434;13.238;2023-02-20T21:11:33;100784.41;;;9.20;100.00
32330;BME280;18807;52.434;13.238;2023-02-20T21:19:08;100787.16;;;9.24;100.00
32330;BME280;18807;52.434;13.238;2023-02-20T21:26:42;100791.63;;;9.24;100.00
32330;BME280;18807;52.434;13.238;2023-02-20T21:34:18;100776.50;;;9.24;100.00
32330;BME280;18807;52.434;13.238;2023-02-20T21:41:52;100767.69;;;9.27;100.00
32330;BME280;18807;52.434;13.238;2023-02-20T21:49:58;100790.88;;;9.31;100.00
32330;BME280;18807;52.434;13.238;2023-02-20T21:57:32;100778.34;;;9.25;100.00
32330;BME280;18807;52.434;13.238;2023-02-20T22:05:08;100776.56;;;9.27;100.00
32330;BME280;18807;52.434;13.238;2023-02-20T22:12:41;100786.31;;;9.25;100.00
32330;BME280;18807;52.434;13.238;2023-02-20T22:20:34;100774.72;;;9.23;100.00
32330;BME280;18807;52.434;13.238;2023-02-20T22:28:25;100761.47;;;9.26;100.00
32330;BME280;18807;52.434;13.238;2023-02-20T22:36:18;100781.03;;;9.27;100.00
32330;BME280;18807;52.434;13.238;2023-02-20T22:44:09;100766.94;;;9.34;100.00
32330;BME280;18807;52.434;13.238;2023-02-20T22:52:02;100778.47;;;9.31;100.00
32330;BME280;18807;52.434;13.238;2023-02-20T22:59:53;100771.38;;;9.33;100.00
32330;BME280;18807;52.434;13.238;2023-02-20T23:07:46;100789.09;;;9.30;100.00
32330;BME280;18807;52.434;13.238;2023-02-20T23:15:37;100784.44;;;9.21;100.00
32330;BME280;18807;52.434;13.238;2023-02-20T23:23:30;100788.72;;;9.13;100.00
32330;BME280;18807;52.434;13.238;2023-02-20T23:31:30;100792.19;;;9.08;100.00
32330;BME280;18807;52.434;13.238;2023-02-20T23:39:23;100795.56;;;9.01;100.00
32330;BME280;18807;52.434;13.238;2023-02-20T23:47:14;100805.25;;;8.97;100.00
32330;BME280;18807;52.434;13.238;2023-02-20T23:55:07;100785.56;;;8.91;100.00
